Time;durP1;ratioP1;P1;durP2;ratioP2;P2;SDS_P1;SDS_P2;PMS_P1;PMS_P2;Temp;Humidity;BMP_temperature;BMP_pressure;BME280_temperature;BME280_humidity;BME280_pressure;Samples;Min_cycle;Max_cycle;Signal;HPM_P1;HPM_P2
2022/11/21 00:01:50;;;;;;;;;;;;;;;14.14;91.03;98519.78;5115388;28;19933;-83
2022/11/21 00:04:15;;;;;;;;;;;;;;;13.99;90.86;98519.69;5115538;28;19912;-83
2022/11/21 00:06:40;;;;;;;;;;;;;;;13.82;92.46;98492.19;5115186;28;20301;-83
2022/11/21 00:09:05;;;;;;;;;;;;;;;13.82;93.50;98478.06;5115364;28;19912;-82
2022/11/21 00:11:31;;;;;;;;;;;;;;;13.98;91.32;98441.94;5116024;28;19958;-83
2022/11/21 00:13:56;;;;;;;;;;;;;;;13.86;92.10;98446.03;5115258;28;20303;-83
2022/11/21 00:16:21;;;;;;;;;;;;;;;13.97;91.77;98466.75;5115476;28;19918;-83
2022/11/21 00:18:47;;;;;;;;;;;;;;;14.01;91.42;98476.28;5115628;28;19918;-81
2022/11/21 00:21:13;;;;;;;;;;;;;;;14.06;90.80;98445.06;5115072;28;19916;-81
2022/11/21 00:23:39;;;;;;;;;;;;;;;13.94;91.03;98465.09;5115442;28;20327;-81
2022/11/21 00:26:05;;;;;;;;;;;;;;;13.71;92.37;98463.53;5115256;28;19915;-81
2022/11/21 00:28:30;;;;;;;;;;;;;;;13.85;92.18;98430.22;5115343;28;19913;-81
2022/11/21 00:30:55;;;;;;;;;;;;;;;13.88;91.54;98395.63;5114950;28;20339;-81
2022/11/21 00:33:22;;;;;;;;;;;;;;;13.84;91.45;98394.03;5115299;28;19960;-81
2022/11/21 00:35:48;;;;;;;;;;;;;;;13.90;91.65;98399.03;5114874;28;19912;-81
2022/11/21 00:38:13;;;;;;;;;;;;;;;13.85;90.59;98396.59;5114876;28;19911;-81
2022/11/21 00:40:41;;;;;;;;;;;;;;;13.49;92.52;98412.50;5114799;28;19961;-81
2022/11/21 00:43:06;;;;;;;;;;;;;;;13.04;93.84;98396.00;5114573;28;20389;-81
2022/11/21 00:45:31;;;;;;;;;;;;;;;13.45;93.32;98387.94;5114565;28;20014;-81
2022/11/21 00:47:57;;;;;;;;;;;;;;;13.71;90.98;98393.78;5114794;28;19972;-81
2022/11/21 00:50:22;;;;;;;;;;;;;;;13.76;89.68;98397.06;5114819;28;19915;-81
2022/11/21 00:52:47;;;;;;;;;;;;;;;13.70;88.03;98405.31;5114892;28;19944;-81
2022/11/21 00:55:12;;;;;;;;;;;;;;;13.75;87.85;98417.41;5114454;28;19916;-81
2022/11/21 00:57:38;;;;;;;;;;;;;;;13.49;88.89;98455.75;5114343;28;19922;-81
2022/11/21 01:00:04;;;;;;;;;;;;;;;13.41;89.71;98474.63;5114288;28;20423;-81
2022/11/21 01:02:30;;;;;;;;;;;;;;;13.29;92.00;98476.97;5114092;28;20423;-80
2022/11/21 01:04:56;;;;;;;;;;;;;;;13.36;92.83;98497.84;5113918;28;19938;-81
2022/11/21 01:07:21;;;;;;;;;;;;;;;13.39;93.34;98467.69;5114234;28;19911;-81
2022/11/21 01:09:47;;;;;;;;;;;;;;;13.53;92.65;98467.03;5114195;28;19937;-80
2022/11/21 01:12:12;;;;;;;;;;;;;;;13.34;94.16;98512.91;5114744;28;19912;-80
2022/11/21 01:14:37;;;;;;;;;;;;;;;13.28;96.11;98505.22;5114835;28;20344;-80
2022/11/21 01:17:02;;;;;;;;;;;;;;;13.42;94.54;98536.41;5113196;28;19923;-80
2022/11/21 01:19:28;;;;;;;;;;;;;;;13.20;96.29;98547.94;5114241;28;19981;-80
2022/11/21 01:21:53;;;;;;;;;;;;;;;13.17;98.96;98568.41;5113979;28;19911;-80
2022/11/21 01:24:18;;;;;;;;;;;;;;;13.16;100.00;98569.31;5113753;28;19916;-80
2022/11/21 01:26:44;;;;;;;;;;;;;;;13.14;100.00;98524.38;5114538;28;19913;-80
2022/11/21 01:29:09;;;;;;;;;;;;;;;13.37;100.00;98518.06;5113844;28;19934;-81
2022/11/21 01:31:34;;;;;;;;;;;;;;;13.33;100.00;98520.91;5113862;28;19912;-81
2022/11/21 01:34:00;;;;;;;;;;;;;;;13.02;100.00;98462.25;5114140;28;19959;-81
2022/11/21 01:36:26;;;;;;;;;;;;;;;13.13;100.00;98484.72;5113798;28;20096;-81
2022/11/21 01:38:53;;;;;;;;;;;;;;;13.55;100.00;98455.47;5113638;28;19969;-82
2022/11/21 01:41:23;;;;;;;;;;;;;;;13.60;99.79;98440.19;5113615;28;19912;-81
2022/11/21 01:43:49;;;;;;;;;;;;;;;13.49;99.75;98446.94;5113523;28;19911;-81
2022/11/21 01:46:15;;;;;;;;;;;;;;;13.52;99.63;98476.78;5113687;28;19916;-83
2022/11/21 01:48:59;;;;;;;;;;;;;;;13.57;98.65;98465.97;5113656;28;20003;-83
2022/11/21 01:51:30;;;;;;;;;;;;;;;13.46;99.36;98449.75;5113461;28;19934;-83
2022/11/21 01:53:58;;;;;;;;;;;;;;;13.32;100.00;98424.72;5113705;28;19972;-83
2022/11/21 01:56:24;;;;;;;;;;;;;;;13.42;100.00;98418.09;5113507;28;19922;-83
2022/11/21 01:58:50;;;;;;;;;;;;;;;13.35;100.00;98421.09;5113476;28;19986;-83
2022/11/21 02:01:16;;;;;;;;;;;;;;;13.45;100.00;98429.47;5113203;28;19919;-83
2022/11/21 02:03:44;;;;;;;;;;;;;;;13.77;100.00;98427.94;5113120;28;19911;-84
2022/11/21 02:06:11;;;;;;;;;;;;;;;13.66;99.40;98417.00;5113310;28;19916;-83
2022/11/21 02:08:36;;;;;;;;;;;;;;;13.70;98.63;98427.38;5113160;28;19912;-83
2022/11/21 02:11:02;;;;;;;;;;;;;;;13.24;100.00;98446.25;5113700;28;19934;-82
2022/11/21 02:13:27;;;;;;;;;;;;;;;13.01;100.00;98464.97;5113166;28;20025;-83
2022/11/21 02:15:53;;;;;;;;;;;;;;;13.05;100.00;98448.88;5113059;28;19923;-83
2022/11/21 02:18:18;;;;;;;;;;;;;;;13.31;100.00;98444.16;5113385;28;19912;-83
2022/11/21 02:20:46;;;;;;;;;;;;;;;13.73;100.00;98436.97;5113041;28;19912;-83
2022/11/21 02:23:14;;;;;;;;;;;;;;;13.85;98.17;98446.13;5112981;28;19912;-83
2022/11/21 02:25:41;;;;;;;;;;;;;;;13.53;99.19;98414.94;5113295;28;19912;-83
2022/11/21 02:28:07;;;;;;;;;;;;;;;13.64;100.00;98424.16;5113148;28;19912;-83
2022/11/21 02:30:35;;;;;;;;;;;;;;;13.82;98.76;98425.91;5113089;28;19916;-82
2022/11/21 02:33:01;;;;;;;;;;;;;;;13.83;98.02;98427.66;5113178;28;19912;-83
2022/11/21 02:35:26;;;;;;;;;;;;;;;13.90;96.52;98418.47;5113088;28;20398;-82
2022/11/21 02:38:10;;;;;;;;;;;;;;;13.80;96.76;98411.88;5113446;28;20395;-83
2022/11/21 02:40:40;;;;;;;;;;;;;;;13.83;96.57;98425.00;5112812;28;19915;-83
2022/11/21 02:43:09;;;;;;;;;;;;;;;13.92;96.36;98427.19;5112439;28;19919;-83
2022/11/21 02:45:35;;;;;;;;;;;;;;;14.00;95.11;98416.22;5113014;28;19912;-83
2022/11/21 02:48:00;;;;;;;;;;;;;;;13.50;96.50;98409.78;5112449;28;20265;-84
2022/11/21 02:50:27;;;;;;;;;;;;;;;13.40;97.90;98424.38;5113091;28;19919;-83
2022/11/21 02:52:54;;;;;;;;;;;;;;;13.54;97.29;98421.09;5113002;28;19947;-83
2022/11/21 02:55:19;;;;;;;;;;;;;;;13.39;97.12;98431.47;5112571;28;19912;-84
2022/11/21 02:57:44;;;;;;;;;;;;;;;13.47;96.95;98415.22;5112783;28;19918;-83
2022/11/21 03:00:10;;;;;;;;;;;;;;;13.24;97.77;98388.00;5112624;28;19931;-83
2022/11/21 03:02:36;;;;;;;;;;;;;;;13.11;100.00;98409.81;5112907;28;19912;-83
2022/11/21 03:05:02;;;;;;;;;;;;;;;13.34;98.99;98425.53;5112731;28;20384;-83
2022/11/21 03:07:27;;;;;;;;;;;;;;;13.30;98.66;98391.28;5112418;28;19912;-83
2022/11/21 03:09:52;;;;;;;;;;;;;;;13.22;99.33;98399.56;5112507;28;19920;-84
2022/11/21 03:12:18;;;;;;;;;;;;;;;13.30;99.57;98412.47;5112532;28;19912;-83
2022/11/21 03:14:43;;;;;;;;;;;;;;;13.25;98.31;98412.66;5112664;28;19911;-83
2022/11/21 03:17:08;;;;;;;;;;;;;;;13.19;99.66;98402.38;5112781;28;19919;-83
2022/11/21 03:19:34;;;;;;;;;;;;;;;13.35;98.10;98408.72;5112555;28;19911;-83
2022/11/21 03:21:59;;;;;;;;;;;;;;;13.52;96.21;98405.25;5112442;28;19912;-83
2022/11/21 03:24:24;;;;;;;;;;;;;;;13.48;95.24;98416.06;5112718;28;19961;-83
2022/11/21 03:26:50;;;;;;;;;;;;;;;13.64;94.33;98410.91;5112492;28;20285;-83
2022/11/21 03:29:15;;;;;;;;;;;;;;;13.24;92.68;98389.78;5112805;28;20357;-83
2022/11/21 03:31:40;;;;;;;;;;;;;;;13.23;93.65;98404.81;5112523;28;19911;-82
2022/11/21 03:34:05;;;;;;;;;;;;;;;12.90;92.04;98410.72;5112312;28;19980;-82
2022/11/21 03:36:31;;;;;;;;;;;;;;;12.56;95.07;98384.03;5112378;28;19918;-83
2022/11/21 03:38:56;;;;;;;;;;;;;;;12.29;96.80;98340.22;5112846;28;19911;-83
2022/11/21 03:41:28;;;;;;;;;;;;;;;11.75;100.00;98349.53;5116122;28;19912;-83
2022/11/21 03:44:04;;;;;;;;;;;;;;;11.74;100.00;98346.03;5115988;28;20002;-84
2022/11/21 03:46:30;;;;;;;;;;;;;;;12.07;100.00;98350.84;5116096;28;20002;-83
2022/11/21 03:48:56;;;;;;;;;;;;;;;12.21;100.00;98330.91;5115903;28;20360;-84
2022/11/21 03:51:21;;;;;;;;;;;;;;;12.35;100.00;98339.94;5115822;28;19918;-83
2022/11/21 03:53:47;;;;;;;;;;;;;;;12.45;100.00;98344.81;5115834;28;19912;-83
2022/11/21 03:56:12;;;;;;;;;;;;;;;12.47;100.00;98349.13;5115366;28;19935;-83
2022/11/21 03:58:38;;;;;;;;;;;;;;;12.32;100.00;98310.13;5115888;28;19995;-83
2022/11/21 04:01:03;;;;;;;;;;;;;;;12.22;100.00;98311.47;5115317;28;19953;-82
2022/11/21 04:03:28;;;;;;;;;;;;;;;12.50;100.00;98317.25;5115404;28;19997;-83
2022/11/21 04:05:54;;;;;;;;;;;;;;;12.45;100.00;98308.69;5097023;28;19919;-83
2022/11/21 04:11:23;;;;;;;;;;;;;;;12.31;100.00;98338.38;5115566;28;19993;-81
2022/11/21 04:13:49;;;;;;;;;;;;;;;12.55;100.00;98346.16;5115430;28;20272;-84
2022/11/21 04:16:14;;;;;;;;;;;;;;;12.84;100.00;98365.16;5115317;28;19999;-84
2022/11/21 04:21:42;;;;;;;;;;;;;;;12.52;100.00;98346.28;5115269;28;19938;-84
2022/11/21 04:24:07;;;;;;;;;;;;;;;12.84;100.00;98342.19;5115021;28;19911;-84
2022/11/21 04:26:33;;;;;;;;;;;;;;;12.94;100.00;98355.84;5115253;28;20375;-84
2022/11/21 04:32:00;;;;;;;;;;;;;;;12.48;100.00;98350.84;5115190;28;19914;-83
2022/11/21 04:34:25;;;;;;;;;;;;;;;12.56;100.00;98331.13;5114731;28;19911;-83
2022/11/21 04:36:51;;;;;;;;;;;;;;;12.40;100.00;98331.81;5115225;28;20369;-82
2022/11/21 04:39:16;;;;;;;;;;;;;;;12.41;100.00;98324.75;5114929;28;19938;-83
2022/11/21 04:41:41;;;;;;;;;;;;;;;12.39;100.00;98331.88;5114536;28;19958;-89
2022/11/21 04:44:07;;;;;;;;;;;;;;;12.27;100.00;98336.78;5115288;28;19912;-90
2022/11/21 04:46:32;;;;;;;;;;;;;;;12.29;100.00;98332.28;5114909;28;19912;-86
2022/11/21 04:48:57;;;;;;;;;;;;;;;12.46;100.00;98333.31;5115049;28;19911;-87
2022/11/21 04:51:23;;;;;;;;;;;;;;;12.78;100.00;98341.63;5113960;28;19916;-86
2022/11/21 04:53:48;;;;;;;;;;;;;;;12.55;99.06;98340.84;5114508;28;20294;-84
2022/11/21 04:56:15;;;;;;;;;;;;;;;12.66;99.52;98328.00;5114061;28;19962;-84
2022/11/21 04:58:41;;;;;;;;;;;;;;;12.85;97.62;98345.69;5114685;28;19912;-84
2022/11/21 05:01:07;;;;;;;;;;;;;;;13.07;95.54;98356.16;5114416;28;19971;-84
2022/11/21 05:03:32;;;;;;;;;;;;;;;12.84;94.81;98362.50;5114374;28;19960;-83
2022/11/21 05:05:57;;;;;;;;;;;;;;;12.05;98.70;98347.44;5114360;28;20002;-83
2022/11/21 05:08:23;;;;;;;;;;;;;;;12.40;97.91;98373.25;5114253;28;19923;-83
2022/11/21 05:13:32;;;;;;;;;;;;;;;12.27;99.28;98351.78;5113875;28;20340;-84
2022/11/21 05:15:57;;;;;;;;;;;;;;;12.22;98.54;98345.81;5114320;28;19943;-84
2022/11/21 05:18:22;;;;;;;;;;;;;;;12.43;98.11;98344.03;5112328;28;19915;-84
2022/11/21 05:20:48;;;;;;;;;;;;;;;11.99;99.34;98361.75;5114076;28;19911;-86
2022/11/21 05:23:13;;;;;;;;;;;;;;;11.62;100.00;98344.75;5112051;28;19963;-84
2022/11/21 05:25:39;;;;;;;;;;;;;;;11.98;100.00;98340.66;5114193;28;19912;-84
2022/11/21 05:28:04;;;;;;;;;;;;;;;11.86;100.00;98347.28;5114296;28;19919;-85
2022/11/21 05:30:29;;;;;;;;;;;;;;;12.04;100.00;98358.06;5114076;28;19912;-84
2022/11/21 05:32:54;;;;;;;;;;;;;;;12.25;100.00;98364.19;5113833;28;19957;-84
2022/11/21 05:35:20;;;;;;;;;;;;;;;12.34;99.37;98362.03;5113525;28;19912;-86
2022/11/21 05:37:45;;;;;;;;;;;;;;;12.24;100.00;98370.44;5113965;28;20379;-85
2022/11/21 05:40:11;;;;;;;;;;;;;;;12.31;98.91;98351.59;5113517;28;19945;-84
2022/11/21 05:45:24;;;;;;;;;;;;;;;12.41;97.67;98352.03;5113594;28;19976;-87
2022/11/21 05:47:49;;;;;;;;;;;;;;;12.30;98.71;98363.09;5113510;28;19908;-87
2022/11/21 05:50:15;;;;;;;;;;;;;;;12.47;97.51;98367.63;5114059;28;19953;-88
2022/11/21 05:52:40;;;;;;;;;;;;;;;12.33;97.57;98373.53;5113306;28;19935;-87
2022/11/21 05:55:06;;;;;;;;;;;;;;;12.70;97.88;98371.91;5113524;28;19918;-87
2022/11/21 05:57:31;;;;;;;;;;;;;;;12.55;97.13;98362.00;5113287;28;19916;-88
2022/11/21 05:59:56;;;;;;;;;;;;;;;12.69;98.14;98362.25;5114879;27;19963;-88
2022/11/21 06:05:06;;;;;;;;;;;;;;;12.22;100.00;98377.56;5113054;27;19965;-88
2022/11/21 06:07:31;;;;;;;;;;;;;;;12.63;99.00;98378.41;5117638;27;19962;-91
2022/11/21 06:09:56;;;;;;;;;;;;;;;12.78;98.55;98384.81;5112355;27;19920;-86
2022/11/21 06:12:21;;;;;;;;;;;;;;;12.67;98.24;98387.06;5112476;28;19965;-86
2022/11/21 06:14:47;;;;;;;;;;;;;;;12.95;96.75;98384.03;5113451;28;19915;-85
2022/11/21 06:17:12;;;;;;;;;;;;;;;12.97;96.59;98386.63;5113258;28;19969;-85
2022/11/21 06:19:37;;;;;;;;;;;;;;;13.10;95.03;98411.59;5113448;28;20341;-85
2022/11/21 06:22:03;;;;;;;;;;;;;;;13.02;95.62;98400.50;5112566;28;19923;-85
2022/11/21 06:24:28;;;;;;;;;;;;;;;13.15;95.65;98408.75;5112908;28;19919;-85
2022/11/21 06:26:53;;;;;;;;;;;;;;;12.97;97.14;98387.47;5113060;28;19961;-83
2022/11/21 06:29:21;;;;;;;;;;;;;;;13.18;96.53;98398.03;5112751;28;19916;-84
2022/11/21 06:31:46;;;;;;;;;;;;;;;13.33;95.44;98399.06;5112870;28;20281;-83
2022/11/21 06:34:11;;;;;;;;;;;;;;;13.63;93.29;98394.16;5112696;28;19914;-84
2022/11/21 06:36:37;;;;;;;;;;;;;;;13.57;92.94;98392.66;5112859;28;20018;-84
2022/11/21 06:39:02;;;;;;;;;;;;;;;13.51;93.57;98394.75;5112860;28;19950;-84
2022/11/21 06:41:30;;;;;;;;;;;;;;;13.70;93.07;98389.41;5112562;28;19912;-84
2022/11/21 06:44:02;;;;;;;;;;;;;;;13.97;91.28;98376.59;5113194;28;20254;-85
2022/11/21 06:46:27;;;;;;;;;;;;;;;13.60;93.29;98386.34;5113412;28;19907;-83
2022/11/21 06:48:52;;;;;;;;;;;;;;;13.79;94.43;98375.72;5112531;28;19923;-82
2022/11/21 06:51:18;;;;;;;;;;;;;;;13.96;93.68;98377.53;5113019;28;20285;-82
2022/11/21 06:53:43;;;;;;;;;;;;;;;14.08;90.69;98387.50;5112693;28;19908;-82
2022/11/21 06:56:09;;;;;;;;;;;;;;;13.54;93.22;98407.84;5112458;28;20385;-82
2022/11/21 06:58:34;;;;;;;;;;;;;;;13.44;95.47;98420.66;5113083;28;19919;-82
2022/11/21 07:01:07;;;;;;;;;;;;;;;13.53;92.98;98412.28;5112652;28;19907;-81
2022/11/21 07:03:33;;;;;;;;;;;;;;;13.77;90.83;98412.88;5112481;28;20381;-82
2022/11/21 07:06:00;;;;;;;;;;;;;;;13.73;89.85;98419.28;5112712;28;19916;-82
2022/11/21 07:08:26;;;;;;;;;;;;;;;13.84;89.82;98421.41;5112650;28;19961;-82
2022/11/21 07:10:51;;;;;;;;;;;;;;;13.82;89.18;98430.38;5112853;28;19915;-82
2022/11/21 07:13:22;;;;;;;;;;;;;;;13.50;90.67;98433.63;5112395;28;19990;-83
2022/11/21 07:15:52;;;;;;;;;;;;;;;13.82;88.58;98412.66;5115682;28;19918;-82
2022/11/21 07:18:18;;;;;;;;;;;;;;;13.97;86.83;98400.47;5116651;28;20440;-82
2022/11/21 07:20:44;;;;;;;;;;;;;;;13.86;87.04;98402.78;5116182;28;20450;-82
2022/11/21 07:23:10;;;;;;;;;;;;;;;13.63;88.52;98419.81;5116271;28;20006;-82
2022/11/21 07:25:35;;;;;;;;;;;;;;;13.40;90.62;98422.59;5116552;28;20392;-82
2022/11/21 07:31:04;;;;;;;;;;;;;;;13.81;87.80;98423.34;5116218;28;20444;-81
2022/11/21 07:33:29;;;;;;;;;;;;;;;13.55;88.24;98418.38;5116225;28;19947;-82
2022/11/21 07:35:56;;;;;;;;;;;;;;;13.45;89.42;98427.66;5116162;28;19912;-82
2022/11/21 07:38:21;;;;;;;;;;;;;;;13.46;90.12;98423.25;5115976;28;19908;-82
2022/11/21 07:40:47;;;;;;;;;;;;;;;13.75;88.10;98427.16;5116058;28;19912;-82
2022/11/21 07:43:12;;;;;;;;;;;;;;;13.82;87.65;98423.25;5115757;28;19922;-82
2022/11/21 07:48:40;;;;;;;;;;;;;;;13.87;87.04;98442.47;5116104;28;19915;-81
2022/11/21 07:51:05;;;;;;;;;;;;;;;13.81;88.09;98445.41;5115735;28;19916;-82
2022/11/21 07:53:31;;;;;;;;;;;;;;;13.85;88.07;98436.38;5115877;28;20411;-82
2022/11/21 07:55:57;;;;;;;;;;;;;;;13.90;89.44;98444.09;5115723;28;20349;-82
2022/11/21 07:58:22;;;;;;;;;;;;;;;14.05;88.11;98453.94;5115994;28;19912;-81
2022/11/21 08:00:48;;;;;;;;;;;;;;;14.38;87.15;98450.59;5115721;28;19912;-82
2022/11/21 08:03:13;;;;;;;;;;;;;;;14.20;87.97;98449.69;5115939;28;20375;-82
2022/11/21 08:05:39;;;;;;;;;;;;;;;14.12;88.67;98444.78;5115534;28;20345;-83
2022/11/21 08:08:05;;;;;;;;;;;;;;;14.32;90.25;98440.28;5115898;28;19919;-83
2022/11/21 08:10:30;;;;;;;;;;;;;;;14.52;89.69;98447.22;5115842;28;19912;-82
2022/11/21 08:12:56;;;;;;;;;;;;;;;14.82;89.02;98449.25;5115417;28;19939;-83
2022/11/21 08:15:21;;;;;;;;;;;;;;;15.01;88.75;98447.38;5115104;28;19950;-82
2022/11/21 08:20:49;;;;;;;;;;;;;;;15.09;88.66;98465.56;5115307;28;19914;-82
2022/11/21 08:23:14;;;;;;;;;;;;;;;14.99;88.35;98461.66;5114996;28;19911;-83
2022/11/21 08:25:40;;;;;;;;;;;;;;;15.13;84.83;98468.91;5115304;28;19953;-83
2022/11/21 08:28:07;;;;;;;;;;;;;;;15.55;83.76;98470.16;5096833;28;20021;-85
2022/11/21 08:33:34;;;;;;;;;;;;;;;15.83;81.57;98469.50;5115019;28;19914;-83
2022/11/21 08:39:24;;;;;;;;;;;;;;;15.73;81.95;98478.94;5114907;28;20297;-82
2022/11/21 08:44:52;;;;;;;;;;;;;;;15.18;84.29;98478.34;5115438;28;20395;-81
2022/11/21 08:50:21;;;;;;;;;;;;;;;15.55;77.95;98457.75;5115026;28;19915;-82
2022/11/21 08:56:14;;;;;;;;;;;;;;;15.40;82.03;98462.09;5114869;28;19914;-82
2022/11/21 08:58:39;;;;;;;;;;;;;;;15.47;79.05;98446.66;5114285;28;19918;-82
2022/11/21 09:04:08;;;;;;;;;;;;;;;15.68;81.13;98463.25;5114633;28;19919;-82
2022/11/21 09:06:33;;;;;;;;;;;;;;;15.67;81.19;98456.19;5114878;28;19919;-82
2022/11/21 09:08:59;;;;;;;;;;;;;;;15.88;81.99;98455.97;5114568;28;19923;-82
2022/11/21 09:11:24;;;;;;;;;;;;;;;16.09;74.91;98460.06;5114478;28;19911;-82
2022/11/21 09:19:56;;;;;;;;;;;;;;;16.46;76.16;98460.59;5091733;28;19931;-83
2022/11/21 09:22:22;;;;;;;;;;;;;;;16.53;71.98;98458.44;5107287;28;20353;-83
2022/11/21 09:24:47;;;;;;;;;;;;;;;16.39;73.44;98459.25;5114115;28;20369;-83
2022/11/21 09:27:13;;;;;;;;;;;;;;;16.44;74.36;98454.50;5113941;28;19915;-83
2022/11/21 09:29:38;;;;;;;;;;;;;;;16.47;74.76;98451.66;5114244;28;19915;-83
2022/11/21 09:32:03;;;;;;;;;;;;;;;16.38;76.20;98460.19;5114109;28;20266;-82
2022/11/21 09:34:30;;;;;;;;;;;;;;;16.25;77.00;98452.06;5113712;28;19947;-83
2022/11/21 09:36:55;;;;;;;;;;;;;;;16.14;76.69;98448.31;5113260;28;19958;-84
2022/11/21 09:39:21;;;;;;;;;;;;;;;16.11;77.58;98436.91;5113697;28;20300;-85
2022/11/21 09:41:54;;;;;;;;;;;;;;;15.91;79.80;98439.84;5113784;28;20284;-84
2022/11/21 09:44:38;;;;;;;;;;;;;;;16.11;79.04;98442.22;5114014;28;19918;-83
2022/11/21 09:47:09;;;;;;;;;;;;;;;16.23;79.68;98434.47;5110961;28;19926;-82
2022/11/21 09:49:40;;;;;;;;;;;;;;;16.18;79.12;98441.88;5111059;28;19994;-83
2022/11/21 09:52:07;;;;;;;;;;;;;;;16.35;79.46;98432.91;5111688;28;19926;-83
2022/11/21 09:54:34;;;;;;;;;;;;;;;16.27;80.08;98428.03;5128272;27;19943;-82
2022/11/21 10:00:03;;;;;;;;;;;;;;;16.68;77.09;98432.69;5113415;28;20334;-82
2022/11/21 10:02:28;;;;;;;;;;;;;;;16.75;78.45;98426.06;5112824;28;19946;-81
2022/11/21 10:04:59;;;;;;;;;;;;;;;16.59;79.65;98430.59;5113288;28;19923;-82
2022/11/21 10:07:26;;;;;;;;;;;;;;;16.76;68.72;98435.78;5094516;28;19973;-82
2022/11/21 10:10:07;;;;;;;;;;;;;;;17.15;63.87;98439.63;5092939;28;19916;-82
2022/11/21 10:12:36;;;;;;;;;;;;;;;17.60;62.20;98433.31;5108875;28;20348;-81
2022/11/21 10:15:19;;;;;;;;;;;;;;;17.98;62.09;98432.66;5111366;28;19912;-82
2022/11/21 10:17:51;;;;;;;;;;;;;;;18.06;65.67;98423.22;5112370;28;19918;-82
2022/11/21 10:20:32;;;;;;;;;;;;;;;18.00;62.63;98430.78;5110862;28;19941;-82
2022/11/21 10:26:00;;;;;;;;;;;;;;;18.54;52.97;98432.53;5113070;28;20052;-82
2022/11/21 10:28:37;;;;;;;;;;;;;;;18.78;55.99;98436.22;5113253;28;19943;-82
2022/11/21 10:31:03;;;;;;;;;;;;;;;18.77;52.35;98437.16;5092232;28;20011;-81
2022/11/21 10:33:33;;;;;;;;;;;;;;;18.92;52.40;98437.09;5092723;28;19954;-82
2022/11/21 10:36:01;;;;;;;;;;;;;;;19.02;49.41;98435.50;5092572;28;19934;-81
2022/11/21 10:38:28;;;;;;;;;;;;;;;19.16;50.93;98441.69;5092063;28;19920;-82
2022/11/21 10:40:53;;;;;;;;;;;;;;;19.36;49.88;98437.63;5092081;28;19916;-82
2022/11/21 10:49:11;;;;;;;;;;;;;;;19.30;48.08;98436.22;5093496;28;20348;-81
2022/11/21 10:51:44;;;;;;;;;;;;;;;19.18;48.77;98439.75;5096305;28;19953;-82
2022/11/21 10:56:57;;;;;;;;;;;;;;;19.24;49.14;98445.53;5096752;28;20438;-81
2022/11/21 10:59:24;;;;;;;;;;;;;;;19.17;50.15;98435.38;5096311;28;20392;-82
2022/11/21 11:01:54;;;;;;;;;;;;;;;18.99;48.05;98445.53;5096067;28;20289;-82
2022/11/21 11:04:20;;;;;;;;;;;;;;;19.04;50.08;98438.06;5096312;28;20378;-82
2022/11/21 11:06:46;;;;;;;;;;;;;;;18.95;50.02;98444.88;5110595;28;19922;-81
2022/11/21 11:09:27;;;;;;;;;;;;;;;18.85;51.31;98446.50;5116794;28;19958;-82
2022/11/21 11:11:52;;;;;;;;;;;;;;;18.78;52.73;98446.88;5098808;28;20288;-82
2022/11/21 11:14:26;;;;;;;;;;;;;;;18.75;52.47;98438.22;5116566;28;20006;-82
2022/11/21 11:16:52;;;;;;;;;;;;;;;18.77;52.56;98444.31;5116717;28;19912;-82
2022/11/21 11:19:21;;;;;;;;;;;;;;;18.89;54.14;98447.97;5116233;28;19938;-81
2022/11/21 11:21:47;;;;;;;;;;;;;;;18.87;55.44;98444.56;5116361;28;19937;-81
2022/11/21 11:24:12;;;;;;;;;;;;;;;18.57;53.97;98443.84;5116461;28;19916;-81
2022/11/21 11:29:49;;;;;;;;;;;;;;;18.51;53.79;98438.09;5116399;28;19918;-81
2022/11/21 11:32:16;;;;;;;;;;;;;;;18.51;53.08;98435.41;5116322;28;19945;-81
2022/11/21 11:35:08;;;;;;;;;;;;;;;18.81;53.87;98439.63;5116011;28;19977;-81
2022/11/21 11:37:47;;;;;;;;;;;;;;;18.69;53.69;98449.31;5115979;28;20387;-81
2022/11/21 11:40:30;;;;;;;;;;;;;;;18.55;54.31;98445.78;5116859;28;19911;-81
2022/11/21 11:48:51;;;;;;;;;;;;;;;18.63;57.76;98463.97;5115771;28;19969;-82
2022/11/21 11:51:22;;;;;;;;;;;;;;;18.56;57.48;98468.00;5115867;28;19959;-82
2022/11/21 11:53:51;;;;;;;;;;;;;;;18.19;57.67;98473.94;5115541;28;20420;-82
2022/11/21 11:56:19;;;;;;;;;;;;;;;17.80;57.90;98472.91;5115885;28;19911;-81
2022/11/21 11:58:50;;;;;;;;;;;;;;;17.67;58.19;98469.28;5115879;28;19912;-81
2022/11/21 12:01:20;;;;;;;;;;;;;;;17.48;59.00;98486.44;5114901;28;19959;-80
2022/11/21 12:04:04;;;;;;;;;;;;;;;17.23;57.93;98491.59;5115451;28;19912;-80
2022/11/21 12:06:32;;;;;;;;;;;;;;;17.12;58.97;98485.13;5115217;28;20014;-81
2022/11/21 12:09:00;;;;;;;;;;;;;;;16.90;58.77;98495.34;5115381;28;19954;-81
2022/11/21 12:15:47;;;;;;;;;;;;;;;16.79;59.16;98495.97;5115326;28;19956;-80
2022/11/21 12:17:03;;;;;;;;;;;;;;;16.41;58.79;98502.59;5115378;28;20274;-80
2022/11/21 12:19:29;;;;;;;;;;;;;;;16.17;57.43;98504.84;5115068;28;19916;-79
2022/11/21 12:21:54;;;;;;;;;;;;;;;16.16;57.95;98508.47;5114941;28;19915;-81
2022/11/21 12:24:21;;;;;;;;;;;;;;;16.15;58.10;98514.72;5115323;28;19968;-80
2022/11/21 12:26:54;;;;;;;;;;;;;;;16.02;58.07;98516.34;5115334;28;19954;-79
2022/11/21 12:29:49;;;;;;;;;;;;;;;15.95;58.23;98525.63;5114882;28;19919;-81
2022/11/21 12:32:32;;;;;;;;;;;;;;;15.96;58.23;98528.22;5114949;28;20006;-80
2022/11/21 12:35:16;;;;;;;;;;;;;;;15.79;58.75;98536.28;5114897;28;20364;-79
2022/11/21 12:37:41;;;;;;;;;;;;;;;15.83;59.74;98537.81;5115256;28;19912;-80
2022/11/21 12:40:09;;;;;;;;;;;;;;;16.06;59.42;98534.72;5114962;28;19912;-81
2022/11/21 12:42:50;;;;;;;;;;;;;;;15.99;59.01;98527.16;5114740;28;19912;-80
2022/11/21 12:45:23;;;;;;;;;;;;;;;16.07;59.25;98536.44;5115121;28;19998;-81
2022/11/21 12:56:44;;;;;;;;;;;;;;;16.07;58.34;98556.88;5114414;28;20400;-81
2022/11/21 12:59:12;;;;;;;;;;;;;;;15.99;59.57;98561.75;5114345;28;19912;-80
2022/11/21 13:01:44;;;;;;;;;;;;;;;15.88;59.97;98557.88;5114169;28;19912;-79
2022/11/21 13:04:19;;;;;;;;;;;;;;;15.96;60.27;98567.22;5114663;28;19938;-79
2022/11/21 13:06:47;;;;;;;;;;;;;;;15.85;60.56;98566.03;5114400;28;20372;-81
2022/11/21 13:09:15;;;;;;;;;;;;;;;15.78;60.19;98572.63;5114280;28;19937;-80
2022/11/21 13:11:58;;;;;;;;;;;;;;;15.79;61.02;98577.00;5113354;28;19908;-80
2022/11/21 13:14:33;;;;;;;;;;;;;;;15.75;58.80;98572.75;5114300;28;19918;-79
2022/11/21 13:17:17;;;;;;;;;;;;;;;15.85;60.11;98575.78;5114725;28;19908;-80
2022/11/21 13:19:49;;;;;;;;;;;;;;;15.85;59.12;98562.50;5114359;28;19919;-80
2022/11/21 13:22:33;;;;;;;;;;;;;;;15.96;58.26;98564.56;5114093;28;20376;-80
2022/11/21 13:24:59;;;;;;;;;;;;;;;15.91;58.21;98567.47;5113874;28;19912;-80
2022/11/21 13:30:27;;;;;;;;;;;;;;;16.09;58.09;98570.94;5114328;28;19922;-80
2022/11/21 13:32:53;;;;;;;;;;;;;;;16.12;58.85;98565.44;5114410;28;19911;-81
2022/11/21 13:35:18;;;;;;;;;;;;;;;16.01;58.92;98575.84;5113828;28;19976;-80
2022/11/21 13:38:03;;;;;;;;;;;;;;;15.95;58.67;98577.00;5113863;28;20311;-80
2022/11/21 13:40:28;;;;;;;;;;;;;;;15.78;58.94;98583.25;5113809;28;19911;-81
2022/11/21 13:43:12;;;;;;;;;;;;;;;15.71;58.75;98574.72;5113734;28;19964;-81
2022/11/21 13:45:52;;;;;;;;;;;;;;;15.46;59.41;98582.28;5113805;28;19916;-80
2022/11/21 13:48:20;;;;;;;;;;;;;;;15.34;60.17;98583.81;5113848;28;20299;-80
2022/11/21 13:50:54;;;;;;;;;;;;;;;15.15;59.76;98587.41;5113751;28;19950;-80
2022/11/21 13:53:31;;;;;;;;;;;;;;;14.92;60.80;98577.06;5113352;28;20010;-80
2022/11/21 13:55:58;;;;;;;;;;;;;;;14.85;60.87;98589.81;5113425;28;19913;-80
2022/11/21 13:58:24;;;;;;;;;;;;;;;14.63;60.68;98590.88;5113619;28;19912;-80
2022/11/21 14:01:06;;;;;;;;;;;;;;;14.21;59.74;98589.34;5113568;28;19976;-80
2022/11/21 14:03:48;;;;;;;;;;;;;;;14.17;60.21;98589.56;5113139;28;19912;-81
2022/11/21 14:06:13;;;;;;;;;;;;;;;14.03;60.83;98585.75;5113104;28;19926;-80
2022/11/21 14:08:39;;;;;;;;;;;;;;;13.83;60.89;98591.13;5113139;28;19911;-80
2022/11/21 14:11:21;;;;;;;;;;;;;;;13.83;61.47;98585.81;5113176;28;19914;-80
2022/11/21 14:13:48;;;;;;;;;;;;;;;13.60;62.42;98598.31;5113737;28;19912;-81
2022/11/21 14:16:22;;;;;;;;;;;;;;;13.66;61.73;98598.03;5113607;28;19912;-81
2022/11/21 14:18:48;;;;;;;;;;;;;;;13.57;61.27;98593.16;5113095;28;19994;-80